cubair logo

Welcome To CubAir Flight!

Cub Air Flight was founded in 2006, by Steve and Sharon Krog. Cub Air Flight school uses vintage Piper J3 Cub aircraft to instruct in, following a philosophy that “old school is still cool.” Cub Air Flight believes that these fine classic airplanes make better pilots by requiring more attention and flying skill than newer airplanes. We at Cub Air Flight hold that flying a vintage airplane is as much an art as it is a science.

The Piper J3 Cub is revered among aviators as a truly classic and iconic airplane. It has served as a trainer to more pilots than almost any airplane, earning a reputation as easy to fly but yet challenging enough to force students to continually better themselves. Cub Air uses two J3 Cubs, restored and maintained with the same attention to detail as a lovingly restored classic car. Cub Air also uses a Piper Cherokee for training requiring an aircraft with more advanced instruments.

Find Us Here!

Hartford Municipal

Airport (KHXF)
4200 Highway U
Hartford, WI 53027

Our Staff

Steve Krog
Jamie Weber

West Bend Weather

[Source: ADDS]
METAR
KETB 110135Z AUTO 29005KT 10SM OVC027 M03/M06 A3004 RMK AO2 =
TAF

Waukesha Weather

[Source: ADDS]
METAR
KUES 110045Z 32006KT 10SM OVC024 M04/M08 A3005 =
TAF
KUES 110130Z 1102/1124 31006KT P6SM OVC025 FM110500 30004KT P6SM SCT025 BKN150 FM111100 18005KT 3SM -SN OVC020 FM111700 20007KT 2SM -SN OVC015 FM112000 26004KT 1 1/2SM -SN OVC015 FM112300 30005KT 5SM -SN OVC010 =

Juneau Weather

[Source: ADDS]
METAR
KUNU 110135Z AUTO 31006KT 10SM OVC028 M04/M09 A3006 RMK AO2 T10391087 =
TAF

Fond Du Lac Weather

[Source: ADDS]
METAR
KFLD 110108Z AUTO 31006KT 10SM OVC030 M03/M08 A3004 RMK AO2 T10331083 =
TAF